Time;durP1;ratioP1;P1;durP2;ratioP2;P2;SDS_P1;SDS_P2;PMS_P1;PMS_P2;Temp;Humidity;BMP_temperature;BMP_pressure;BME280_temperature;BME280_humidity;BME280_pressure;Samples;Min_cycle;Max_cycle;Signal;HPM_P1;HPM_P2
2023/11/17 00:00:08;;;;;;;0.30;0.30;;;;;;;5.59;79.34;97197.16;5052297;28;20623;-61
2023/11/17 00:02:35;;;;;;;0.30;0.30;;;;;;;5.61;79.04;97201.19;5070522;28;20084;-62
2023/11/17 00:05:03;;;;;;;0.30;0.30;;;;;;;5.77;78.82;97207.69;5070119;28;20553;-62
2023/11/17 00:07:30;;;;;;;0.30;0.30;;;;;;;5.87;78.56;97201.00;5070490;28;20621;-62
2023/11/17 00:09:57;;;;;;;0.25;0.25;;;;;;;5.94;78.09;97204.03;5070231;28;20138;-62
2023/11/17 00:12:23;;;;;;;0.30;0.30;;;;;;;5.90;78.00;97197.59;5069677;28;20493;-61
2023/11/17 00:14:51;;;;;;;0.30;0.30;;;;;;;5.91;79.69;97191.75;5089378;28;20060;-61
2023/11/17 00:17:18;;;;;;;0.30;0.30;;;;;;;5.88;79.79;97177.91;5072170;28;20105;-63
2023/11/17 00:19:45;;;;;;;0.30;0.30;;;;;;;5.05;78.81;97041.69;5072166;28;20051;-61
2023/11/17 00:22:13;;;;;;;0.30;0.30;;;;;;;5.96;78.53;97185.25;5090423;28;20055;-61
2023/11/17 00:24:41;;;;;;;0.30;0.30;;;;;;;5.52;77.75;97128.22;5090719;28;20059;-62
2023/11/17 00:27:09;;;;;;;0.30;0.30;;;;;;;5.50;77.78;97114.03;5089946;28;20081;-61
2023/11/17 00:29:37;;;;;;;0.30;0.30;;;;;;;5.84;78.33;97168.72;5090271;28;20521;-62
2023/11/17 00:32:05;;;;;;;0.30;0.30;;;;;;;5.43;79.29;97130.22;5090895;28;20060;-61
2023/11/17 00:34:31;;;;;;;0.30;0.30;;;;;;;5.54;79.45;97178.13;5090263;28;20126;-61
2023/11/17 00:37:01;;;;;;;0.30;0.30;;;;;;;5.14;80.24;97141.28;5090479;28;20080;-61
2023/11/17 00:39:29;;;;;;;0.30;0.30;;;;;;;3.29;79.52;96820.91;5072352;28;20080;-62
2023/11/17 00:41:56;;;;;;;0.30;0.30;;;;;;;5.08;79.76;97126.09;5072098;28;20056;-61
2023/11/17 00:44:23;;;;;;;0.20;0.20;;;;;;;4.87;78.88;97075.91;5090103;28;20048;-61
2023/11/17 00:46:49;;;;;;;0.20;0.20;;;;;;;5.35;79.15;97153.06;5090169;28;20544;-61
2023/11/17 00:49:16;;;;;;;0.30;0.30;;;;;;;5.38;79.27;97152.41;5090378;28;20052;-61
2023/11/17 00:51:45;;;;;;;0.30;0.30;;;;;;;4.96;79.56;97093.09;5089194;28;20051;-61
2023/11/17 00:54:14;;;;;;;0.30;0.30;;;;;;;5.51;80.46;97145.84;5069087;28;20106;-60
2023/11/17 00:56:41;;;;;;;0.30;0.30;;;;;;;5.19;80.83;97094.38;5064682;28;20052;-61
2023/11/17 00:59:11;;;;;;;0.30;0.30;;;;;;;5.27;80.94;97088.03;5066509;28;20563;-61
2023/11/17 01:01:39;;;;;;;0.30;0.30;;;;;;;5.72;80.46;97141.16;5066433;28;20048;-61
2023/11/17 01:04:06;;;;;;;0.30;0.30;;;;;;;5.65;80.01;97118.88;5054097;28;20060;-62
2023/11/17 01:06:33;;;;;;;0.30;0.30;;;;;;;5.86;80.60;97138.94;5046765;28;20169;-61
2023/11/17 01:09:00;;;;;;;0.30;0.30;;;;;;;3.58;79.34;96771.66;5046979;28;20546;-61
2023/11/17 01:11:27;;;;;;;0.30;0.30;;;;;;;5.95;80.15;97117.66;5044712;28;20148;-61
2023/11/17 01:13:54;;;;;;;0.30;0.30;;;;;;;6.03;80.08;97125.03;5057358;28;20147;-62
2023/11/17 01:16:21;;;;;;;0.30;0.30;;;;;;;5.86;79.94;97082.00;5066267;28;20460;-61
2023/11/17 01:18:48;;;;;;;0.30;0.30;;;;;;;5.94;80.18;97127.84;5066185;28;20130;-63
2023/11/17 01:21:15;;;;;;;0.30;0.30;;;;;;;5.60;81.11;97078.69;5066255;28;20048;-61
2023/11/17 01:23:42;;;;;;;0.30;0.30;;;;;;;6.10;80.49;97125.28;5066152;28;20081;-61
2023/11/17 01:26:09;;;;;;;0.30;0.30;;;;;;;6.02;80.30;97115.19;5065976;28;20040;-61
2023/11/17 01:28:36;;;;;;;0.30;0.30;;;;;;;6.04;80.01;97110.13;5065812;28;20127;-61
2023/11/17 01:31:04;;;;;;;0.30;0.30;;;;;;;5.87;80.33;97077.31;5065764;28;20059;-63
2023/11/17 01:33:31;;;;;;;0.30;0.30;;;;;;;6.08;79.75;97105.56;5047806;28;20153;-62
2023/11/17 01:35:58;;;;;;;0.30;0.30;;;;;;;5.87;79.21;97069.06;5054962;28;20163;-63
2023/11/17 01:38:26;;;;;;;0.30;0.30;;;;;;;6.28;79.34;97120.38;5064797;28;20063;-61
2023/11/17 01:40:56;;;;;;;0.30;0.30;;;;;;;5.94;79.91;97066.59;5047812;28;20499;-61
2023/11/17 01:43:24;;;;;;;0.30;0.30;;;;;;;6.35;79.26;97104.94;5048037;28;20052;-64
2023/11/17 01:45:54;;;;;;;0.30;0.30;;;;;;;6.37;78.49;97102.63;5047445;28;20526;-62
2023/11/17 01:48:23;;;;;;;0.30;0.30;;;;;;;6.36;78.09;97100.22;5065431;28;20048;-63
2023/11/17 01:50:52;;;;;;;0.30;0.30;;;;;;;6.30;79.30;97085.91;5065314;28;20048;-61
2023/11/17 01:53:19;;;;;;;0.30;0.30;;;;;;;5.77;79.82;97039.25;5065801;28;20056;-61
2023/11/17 01:55:46;;;;;;;0.30;0.30;;;;;;;5.84;79.81;97023.03;5065472;28;20145;-63
2023/11/17 01:58:15;;;;;;;0.30;0.30;;;;;;;6.32;80.34;97089.13;5065503;28;20052;-62
2023/11/17 02:00:42;;;;;;;0.30;0.30;;;;;;;6.31;80.52;97087.50;5065464;28;20063;-62
2023/11/17 02:03:09;;;;;;;0.30;0.30;;;;;;;5.62;81.21;97001.41;5065166;28;20045;-63
2023/11/17 02:05:36;;;;;;;0.30;0.30;;;;;;;6.31;80.56;97087.50;5065583;28;20063;-64
2023/11/17 02:08:20;;;;;;;0.30;0.30;;;;;;;6.18;80.47;97078.44;5064144;28;20056;-61
2023/11/17 02:11:08;;;;;;;0.30;0.30;;;;;;;6.40;79.61;97079.16;5065393;28;20048;-61
2023/11/17 02:13:42;;;;;;;0.30;0.30;;;;;;;5.40;82.63;97040.25;5074321;28;20048;-63
2023/11/17 02:16:17;;;;;;;0.30;0.30;;;;;;;4.57;83.66;96963.44;5085432;28;20426;-62
2023/11/17 02:18:49;;;;;;;0.30;0.30;;;;;;;4.79;83.86;96999.94;5067207;28;20245;-63
2023/11/17 02:21:20;;;;;;;0.30;0.30;;;;;;;4.78;84.12;96992.81;5066718;28;20054;-62
2023/11/17 02:23:51;;;;;;;0.30;0.30;;;;;;;4.91;83.12;96972.53;5085010;28;20044;-61
2023/11/17 02:26:25;;;;;;;0.30;0.30;;;;;;;5.64;82.23;97067.84;5084207;28;20510;-61
2023/11/17 02:28:58;;;;;;;0.30;0.30;;;;;;;5.60;83.10;97055.91;5084472;28;20082;-62
2023/11/17 02:31:32;;;;;;;0.30;0.30;;;;;;;5.67;83.67;97050.66;5084994;28;20109;-62
2023/11/17 02:34:10;;;;;;;0.30;0.30;;;;;;;5.76;82.87;97059.63;5067143;28;20048;-64
2023/11/17 02:36:38;;;;;;;0.30;0.30;;;;;;;5.63;83.80;97055.22;5084886;28;20130;-61
2023/11/17 02:39:25;;;;;;;0.30;0.30;;;;;;;5.77;84.24;97051.03;5084658;28;20047;-63
2023/11/17 02:41:56;;;;;;;0.30;0.30;;;;;;;5.76;83.70;97037.63;5084622;28;20477;-62
2023/11/17 02:44:28;;;;;;;0.30;0.30;;;;;;;5.79;83.63;97031.47;5084445;28;20506;-62
2023/11/17 02:46:59;;;;;;;0.30;0.30;;;;;;;5.67;83.50;96998.47;5083375;28;20076;-62
2023/11/17 02:49:45;;;;;;;0.30;0.30;;;;;;;5.74;84.07;97017.94;5084847;28;20052;-62
2023/11/17 02:52:26;;;;;;;0.30;0.30;;;;;;;5.84;83.00;97034.03;5084556;28;20055;-61
2023/11/17 02:54:54;;;;;;;0.30;0.30;;;;;;;5.85;82.77;97025.44;5084390;28;20135;-63
2023/11/17 02:57:24;;;;;;;0.30;0.30;;;;;;;5.96;83.27;97012.06;5084429;28;20051;-61
2023/11/17 02:59:52;;;;;;;0.30;0.30;;;;;;;6.07;82.60;97004.97;5066487;28;20311;-62
2023/11/17 03:02:19;;;;;;;0.30;0.30;;;;;;;5.99;82.55;97011.41;5084336;28;20056;-62
2023/11/17 03:04:52;;;;;;;0.30;0.30;;;;;;;5.80;82.06;96962.41;5050714;28;20056;-62
2023/11/17 03:07:19;;;;;;;0.30;0.30;;;;;;;5.60;84.43;97009.19;5064254;28;20491;-61
2023/11/17 03:09:51;;;;;;;0.30;0.30;;;;;;;5.44;84.12;96936.81;5063926;28;20501;-61
2023/11/17 03:12:19;;;;;;;0.30;0.30;;;;;;;5.89;84.12;96992.59;5063938;28;20053;-62
2023/11/17 03:14:46;;;;;;;0.30;0.30;;;;;;;5.96;84.67;96995.56;5045890;28;20539;-62
2023/11/17 03:17:14;;;;;;;0.30;0.30;;;;;;;6.00;83.84;96989.06;5063754;28;20049;-61
2023/11/17 03:19:40;;;;;;;0.30;0.30;;;;;;;5.90;83.89;97021.66;5064482;28;20123;-62
2023/11/17 03:22:07;;;;;;;0.30;0.30;;;;;;;5.59;85.19;96996.59;5062755;28;20526;-62
2023/11/17 03:24:34;;;;;;;0.30;0.30;;;;;;;5.74;84.27;96995.94;5045820;28;20951;-61
2023/11/17 03:27:02;;;;;;;0.30;0.30;;;;;;;5.41;84.09;96970.44;5063845;28;20499;-62
2023/11/17 03:29:29;;;;;;;0.30;0.30;;;;;;;5.68;84.15;96989.88;5046058;28;20049;-62
2023/11/17 03:31:57;;;;;;;0.30;0.30;;;;;;;5.67;83.59;96974.53;5046380;28;20040;-62
2023/11/17 03:34:29;;;;;;;0.30;0.30;;;;;;;5.70;83.86;96967.56;5046202;28;20441;-61
2023/11/17 03:37:03;;;;;;;0.30;0.30;;;;;;;5.64;84.45;96988.16;5063950;28;20049;-62
2023/11/17 03:39:32;;;;;;;0.30;0.30;;;;;;;5.61;84.48;97005.31;5063435;28;20114;-62
2023/11/17 03:42:00;;;;;;;0.30;0.30;;;;;;;5.64;84.90;96991.69;5063458;28;20058;-62
2023/11/17 03:44:30;;;;;;;0.25;0.25;;;;;;;5.68;84.93;96991.81;5063447;28;20099;-62
2023/11/17 03:46:58;;;;;;;0.30;0.30;;;;;;;5.60;84.88;96989.97;5041985;28;20063;-62
2023/11/17 03:49:25;;;;;;;0.30;0.30;;;;;;;5.67;85.08;96992.97;5042149;28;20056;-62
2023/11/17 03:51:55;;;;;;;0.30;0.30;;;;;;;5.69;84.97;96976.94;5042076;28;20182;-62
2023/11/17 03:54:22;;;;;;;0.30;0.30;;;;;;;5.76;85.03;96979.94;5043929;28;20138;-62
2023/11/17 03:56:50;;;;;;;0.30;0.30;;;;;;;5.76;85.37;96972.50;5042214;28;20053;-64
2023/11/17 03:59:18;;;;;;;0.30;0.30;;;;;;;5.15;84.88;96874.63;5043578;28;20671;-61
2023/11/17 04:01:46;;;;;;;0.30;0.30;;;;;;;5.60;83.63;96924.03;5041886;28;20049;-62
2023/11/17 04:04:17;;;;;;;0.30;0.30;;;;;;;6.01;83.24;96967.84;5049290;28;20063;-62
2023/11/17 04:06:50;;;;;;;0.30;0.30;;;;;;;4.92;85.31;96897.28;5063329;28;20506;-62
2023/11/17 04:09:23;;;;;;;0.30;0.30;;;;;;;5.56;85.82;96970.63;5053753;28;20072;-61
2023/11/17 04:11:58;;;;;;;0.30;0.30;;;;;;;5.62;85.99;96971.19;5076413;28;20048;-62
2023/11/17 04:14:36;;;;;;;0.30;0.30;;;;;;;5.68;85.83;96969.84;5061623;28;20096;-64
2023/11/17 04:17:04;;;;;;;0.30;0.30;;;;;;;5.78;85.60;96958.41;5061911;28;20056;-62
2023/11/17 04:19:31;;;;;;;0.30;0.30;;;;;;;5.84;84.98;96951.56;5063565;28;20056;-63
2023/11/17 04:21:59;;;;;;;0.30;0.30;;;;;;;5.95;84.45;96947.22;5063850;28;20131;-63
2023/11/17 04:24:25;;;;;;;0.30;0.30;;;;;;;5.99;83.64;96948.16;5063577;28;20075;-62
2023/11/17 04:26:52;;;;;;;0.30;0.30;;;;;;;5.98;83.40;96993.28;5063261;28;20184;-62
2023/11/17 04:29:19;;;;;;;0.30;0.30;;;;;;;5.95;82.88;96936.22;5066639;28;20058;-62
2023/11/17 04:31:45;;;;;;;0.30;0.30;;;;;;;5.70;83.39;96896.13;5067026;28;20067;-63
2023/11/17 04:34:12;;;;;;;0.30;0.30;;;;;;;5.56;83.81;96896.47;5067369;28;20067;-62
2023/11/17 04:36:39;;;;;;;0.30;0.30;;;;;;;5.50;84.11;96883.28;5065622;28;20058;-62
2023/11/17 04:39:17;;;;;;;0.40;0.40;;;;;;;5.94;84.77;96940.16;5066953;28;20068;-62
2023/11/17 04:41:45;;;;;;;0.30;0.30;;;;;;;5.95;84.69;96942.53;5065467;28;20129;-63
2023/11/17 04:44:12;;;;;;;0.30;0.30;;;;;;;5.74;83.84;96905.25;5066813;28;20114;-62
2023/11/17 04:46:38;;;;;;;0.30;0.30;;;;;;;5.94;84.27;96929.94;5066397;28;20052;-62
2023/11/17 04:49:05;;;;;;;0.30;0.30;;;;;;;6.04;84.08;96934.16;5066801;28;20118;-63
2023/11/17 04:51:32;;;;;;;0.30;0.30;;;;;;;6.02;82.78;96936.47;5066568;28;20059;-61
2023/11/17 04:53:59;;;;;;;0.30;0.30;;;;;;;6.05;83.00;96963.28;5066617;28;20048;-61
2023/11/17 04:56:27;;;;;;;0.30;0.30;;;;;;;5.93;83.07;96933.84;5065135;28;20052;-61
2023/11/17 04:58:54;;;;;;;0.30;0.30;;;;;;;5.79;84.92;96927.84;5066444;28;20048;-63
2023/11/17 05:01:20;;;;;;;0.30;0.30;;;;;;;5.60;84.89;96872.63;5066770;28;20327;-61
2023/11/17 05:03:47;;;;;;;0.30;0.30;;;;;;;5.60;83.90;96869.06;5065138;28;20140;-62
2023/11/17 05:06:17;;;;;;;0.30;0.30;;;;;;;5.01;88.08;96930.97;5066295;28;20169;-62
2023/11/17 05:08:44;;;;;;;0.30;0.30;;;;;;;4.88;89.29;96886.22;5065072;28;20480;-63
2023/11/17 05:11:11;;;;;;;0.20;0.20;;;;;;;5.19;88.43;96924.16;5066309;28;20051;-62
2023/11/17 05:13:39;;;;;;;0.30;0.30;;;;;;;4.62;87.57;96806.09;5066224;28;20431;-62
2023/11/17 05:16:06;;;;;;;0.30;0.30;;;;;;;5.39;86.78;96912.34;5066230;28;20049;-65
2023/11/17 05:18:33;;;;;;;0.30;0.30;;;;;;;5.38;87.46;96896.97;5047988;28;20064;-63
2023/11/17 05:20:59;;;;;;;0.30;0.30;;;;;;;5.38;88.66;96899.72;5065933;28;20510;-61
2023/11/17 05:23:26;;;;;;;0.30;0.30;;;;;;;5.50;87.07;96888.78;5065755;28;20450;-62
2023/11/17 05:25:53;;;;;;;0.20;0.20;;;;;;;4.79;85.93;96777.69;5066075;28;20133;-64
2023/11/17 05:28:19;;;;;;;0.30;0.30;;;;;;;5.46;86.51;96890.59;5065777;28;20079;-62
2023/11/17 05:30:46;;;;;;;0.30;0.30;;;;;;;5.30;86.45;96853.94;5065977;28;20064;-62
2023/11/17 05:33:17;;;;;;;0.30;0.30;;;;;;;5.69;86.25;96900.00;5065566;28;20048;-61
2023/11/17 05:35:46;;;;;;;0.30;0.30;;;;;;;5.47;86.02;96859.25;5065725;28;20056;-62
2023/11/17 05:38:12;;;;;;;0.30;0.30;;;;;;;5.79;85.67;96905.03;5046898;28;20057;-64
2023/11/17 05:40:40;;;;;;;0.30;0.30;;;;;;;5.76;85.64;96925.78;5046357;28;20067;-61
2023/11/17 05:43:07;;;;;;;0.30;0.30;;;;;;;5.87;85.61;96915.16;5064359;28;20432;-61
2023/11/17 05:45:34;;;;;;;0.30;0.30;;;;;;;5.58;85.04;96915.34;5064298;28;20056;-63
2023/11/17 05:48:05;;;;;;;0.30;0.30;;;;;;;6.03;84.59;96921.56;5064205;28;20052;-63
2023/11/17 05:50:33;;;;;;;0.30;0.30;;;;;;;6.05;83.84;96889.06;5063821;28;20041;-60
2023/11/17 05:53:00;;;;;;;0.30;0.30;;;;;;;6.04;84.08;96885.50;5061299;28;20435;-62
2023/11/17 05:55:27;;;;;;;0.30;0.30;;;;;;;6.07;84.05;96892.22;5047304;28;20052;-61
2023/11/17 05:57:54;;;;;;;0.30;0.30;;;;;;;6.13;85.00;96885.38;5065189;28;20049;-61
2023/11/17 06:00:21;;;;;;;0.30;0.30;;;;;;;6.28;83.99;96878.34;5065274;28;20049;-63
2023/11/17 06:02:48;;;;;;;0.30;0.30;;;;;;;6.39;84.17;96895.97;5065370;28;20143;-61
2023/11/17 06:05:15;;;;;;;0.30;0.30;;;;;;;6.08;83.80;96825.13;5064860;28;20045;-63
2023/11/17 06:07:42;;;;;;;0.30;0.30;;;;;;;6.52;83.16;96868.09;5065050;28;20501;-63
2023/11/17 06:10:10;;;;;;;0.30;0.30;;;;;;;6.43;82.77;96870.19;5065042;28;20067;-64
2023/11/17 06:12:37;;;;;;;0.32;0.32;;;;;;;6.54;82.54;96860.31;5080284;28;20049;-62
2023/11/17 06:15:05;;;;;;;0.30;0.30;;;;;;;6.62;81.70;96861.31;5064645;28;20052;-62
2023/11/17 06:17:34;;;;;;;0.30;0.30;;;;;;;6.02;81.95;96757.78;5063232;28;20147;-63
2023/11/17 06:20:03;;;;;;;0.30;0.30;;;;;;;6.66;82.02;96846.50;5064652;28;20602;-63
2023/11/17 06:22:30;;;;;;;0.30;0.30;;;;;;;6.78;82.74;96849.19;5065213;28;20052;-62
2023/11/17 06:24:57;;;;;;;0.30;0.30;;;;;;;6.97;81.52;96849.34;5064914;28;20052;-63
2023/11/17 06:27:24;;;;;;;0.30;0.30;;;;;;;7.12;79.72;96848.59;5063315;28;20567;-63
2023/11/17 06:29:51;;;;;;;0.30;0.30;;;;;;;7.34;79.31;96839.72;5064324;28;20531;-63
2023/11/17 06:32:17;;;;;;;0.30;0.30;;;;;;;7.55;78.41;96845.78;5065182;28;20114;-63
2023/11/17 06:34:46;;;;;;;0.40;0.40;;;;;;;7.32;76.59;96808.16;5063524;28;20051;-63
2023/11/17 06:37:13;;;;;;;0.40;0.40;;;;;;;6.81;78.84;96779.66;5064735;28;20491;-63
2023/11/17 06:39:40;;;;;;;0.30;0.30;;;;;;;7.18;79.71;96869.19;5064621;28;20076;-63
2023/11/17 06:42:07;;;;;;;0.40;0.40;;;;;;;6.67;79.22;96815.06;5064514;28;20052;-63
2023/11/17 06:44:34;;;;;;;0.30;0.30;;;;;;;6.82;79.26;96833.59;5063063;28;20094;-62
2023/11/17 06:47:03;;;;;;;0.40;0.40;;;;;;;7.16;78.57;96821.91;5062862;28;20057;-61
2023/11/17 06:49:32;;;;;;;0.30;0.30;;;;;;;7.36;78.16;96809.06;5064010;28;20056;-62
2023/11/17 06:52:01;;;;;;;0.30;0.30;;;;;;;7.49;77.51;96789.31;5063991;28;20052;-62
2023/11/17 06:54:28;;;;;;;0.40;0.40;;;;;;;7.69;77.88;96791.00;5079991;28;20755;-62
2023/11/17 06:56:55;;;;;;;0.30;0.30;;;;;;;6.92;76.90;96642.31;5058810;28;20059;-59
2023/11/17 06:59:22;;;;;;;0.32;0.32;;;;;;;7.16;75.19;96697.97;5062432;28;20108;-63
2023/11/17 07:01:52;;;;;;;0.40;0.40;;;;;;;7.95;75.10;96786.88;5062473;28;20076;-66
2023/11/17 07:04:21;;;;;;;0.40;0.40;;;;;;;7.35;75.87;96744.88;5062467;28;20132;-61
2023/11/17 07:06:48;;;;;;;0.40;0.40;;;;;;;7.86;75.73;96800.03;5061550;28;20063;-60
2023/11/17 07:09:23;;;;;;;0.40;0.40;;;;;;;7.45;74.72;96722.31;5058756;28;20055;-61
2023/11/17 07:11:51;;;;;;;0.40;0.40;;;;;;;8.17;73.64;96822.03;5058958;28;20044;-66
2023/11/17 07:14:22;;;;;;;0.40;0.40;;;;;;;8.46;73.23;96824.28;5061247;28;20064;-66
2023/11/17 07:16:49;;;;;;;0.40;0.40;;;;;;;8.75;71.79;96815.44;5067455;28;20575;-62
2023/11/17 07:19:17;;;;;;;0.40;0.40;;;;;;;8.94;71.68;96804.38;5062986;28;20139;-65
2023/11/17 07:21:49;;;;;;;0.40;0.40;;;;;;;9.16;71.31;96790.59;5062959;28;20071;-64
2023/11/17 07:24:18;;;;;;;0.40;0.40;;;;;;;8.64;70.91;96699.28;5044131;28;20078;-65
2023/11/17 07:26:46;;;;;;;0.50;0.50;;;;;;;9.29;69.80;96802.28;5051880;28;20051;-65
2023/11/17 07:29:13;;;;;;;0.40;0.40;;;;;;;8.34;70.78;96700.25;5062632;28;21088;-61
2023/11/17 07:31:48;;;;;;;0.40;0.40;;;;;;;9.52;69.79;96789.25;5061979;28;20083;-67
2023/11/17 07:34:16;;;;;;;0.40;0.40;;;;;;;9.58;69.20;96793.28;5062638;28;20052;-62
2023/11/17 07:36:45;;;;;;;0.40;0.40;;;;;;;9.65;69.15;96795.38;5063327;28;20067;-61
2023/11/17 07:39:13;;;;;;;0.40;0.40;;;;;;;9.63;68.66;96787.44;5062248;28;20049;-67
2023/11/17 07:41:40;;;;;;;0.40;0.40;;;;;;;9.01;68.92;96652.56;5061230;28;20049;-63
2023/11/17 07:44:08;;;;;;;0.50;0.50;;;;;;;9.81;68.05;96755.34;5062152;28;20148;-64
2023/11/17 07:46:35;;;;;;;0.50;0.50;;;;;;;10.40;66.78;96774.78;5062925;28;20470;-74
2023/11/17 07:49:02;;;;;;;0.50;0.50;;;;;;;10.45;65.97;96716.31;5044459;28;20056;-61
2023/11/17 07:51:29;;;;;;;0.50;0.50;;;;;;;11.11;63.56;96761.78;5058758;28;20044;-64
2023/11/17 07:53:56;;;;;;;0.50;0.50;;;;;;;11.26;63.21;96761.53;5041725;28;20056;-65
2023/11/17 07:56:22;;;;;;;0.40;0.40;;;;;;;11.21;62.55;96702.84;5044306;28;20057;-63
2023/11/17 07:58:49;;;;;;;0.50;0.50;;;;;;;11.66;61.61;96733.00;5060923;28;20099;-61
2023/11/17 08:01:17;;;;;;;0.50;0.50;;;;;;;11.70;60.54;96765.13;5061330;28;20048;-59
2023/11/17 08:03:45;;;;;;;0.50;0.50;;;;;;;11.66;60.62;96774.59;5049428;28;20058;-62
2023/11/17 08:06:12;;;;;;;0.50;0.50;;;;;;;11.59;59.61;96710.69;5050972;28;20052;-61
2023/11/17 08:08:40;;;;;;;0.60;0.60;;;;;;;11.68;59.61;96738.97;5066386;28;20049;-63
2023/11/17 08:11:11;;;;;;;0.60;0.60;;;;;;;12.16;58.47;96759.91;5061667;28;20048;-61
2023/11/17 08:13:38;;;;;;;0.50;0.50;;;;;;;11.82;59.06;96711.31;5065432;28;20053;-61
2023/11/17 08:16:08;;;;;;;0.55;0.55;;;;;;;12.06;59.34;96733.66;5064784;28;20169;-61
2023/11/17 08:18:37;;;;;;;0.50;0.50;;;;;;;12.56;56.89;96751.41;5065735;28;20153;-58
2023/11/17 08:21:06;;;;;;;0.50;0.50;;;;;;;12.49;57.48;96748.56;5048300;28;20049;-58
2023/11/17 08:23:33;;;;;;;0.60;0.60;;;;;;;12.46;57.64;96729.91;5064323;28;20075;-60
2023/11/17 08:26:01;;;;;;;0.60;0.60;;;;;;;11.75;59.77;96723.16;5048285;28;20063;-60
2023/11/17 08:28:28;;;;;;;0.60;0.60;;;;;;;11.95;59.05;96693.13;5065877;28;20135;-61
2023/11/17 08:30:57;;;;;;;0.50;0.50;;;;;;;12.35;59.09;96712.41;5066285;28;20464;-61
2023/11/17 08:33:24;;;;;;;0.60;0.60;;;;;;;12.30;58.37;96682.22;5046994;28;20113;-66
2023/11/17 08:35:52;;;;;;;0.50;0.50;;;;;;;12.00;58.85;96631.69;5060353;28;20049;-62
2023/11/17 08:38:20;;;;;;;0.50;0.50;;;;;;;12.18;58.88;96618.72;5064424;28;20052;-67
2023/11/17 08:40:50;;;;;;;0.50;0.50;;;;;;;12.84;58.66;96701.47;5066313;28;20048;-63
2023/11/17 08:43:18;;;;;;;0.50;0.50;;;;;;;12.94;58.92;96700.72;5064344;28;20049;-67
2023/11/17 08:45:51;;;;;;;0.60;0.60;;;;;;;12.81;58.48;96674.47;5063325;28;20040;-61
2023/11/17 08:48:18;;;;;;;0.50;0.50;;;;;;;13.35;58.33;96707.56;5064327;28;20303;-60
2023/11/17 08:50:45;;;;;;;0.60;0.60;;;;;;;13.58;57.07;96691.25;5046053;28;20053;-63
2023/11/17 08:53:12;;;;;;;0.55;0.55;;;;;;;13.70;55.99;96687.28;5063868;28;20448;-60
2023/11/17 08:55:41;;;;;;;0.60;0.60;;;;;;;13.73;55.48;96699.59;5065892;28;20132;-59
2023/11/17 08:58:11;;;;;;;0.60;0.60;;;;;;;13.86;55.32;96696.00;5053532;28;20087;-59
2023/11/17 09:00:40;;;;;;;0.60;0.60;;;;;;;14.17;54.15;96694.34;5056962;28;20555;-60
2023/11/17 09:03:09;;;;;;;0.60;0.60;;;;;;;13.83;53.96;96618.06;5052526;28;20502;-61
2023/11/17 09:05:36;;;;;;;0.50;0.50;;;;;;;13.89;54.04;96605.31;5063963;28;20049;-67
2023/11/17 09:08:03;;;;;;;0.63;0.63;;;;;;;13.59;53.37;96617.69;5047312;28;20490;-64
2023/11/17 09:10:31;;;;;;;0.60;0.60;;;;;;;13.45;53.44;96631.63;5063695;28;20048;-64
2023/11/17 09:12:58;;;;;;;0.60;0.60;;;;;;;13.34;55.12;96664.22;5061788;28;20496;-65
2023/11/17 09:15:27;;;;;;;0.60;0.60;;;;;;;13.53;55.46;96655.47;5063729;28;21063;-62
2023/11/17 09:17:54;;;;;;;0.60;0.60;;;;;;;11.92;55.29;96391.41;5046570;28;20048;-63
2023/11/17 09:20:23;;;;;;;0.50;0.50;;;;;;;13.87;55.33;96647.47;5047140;28;20488;-59
2023/11/17 09:22:51;;;;;;;0.68;0.68;;;;;;;13.07;54.44;96493.38;5063319;28;20052;-59
2023/11/17 09:25:19;;;;;;;0.60;0.60;;;;;;;14.00;54.59;96633.91;5062873;28;20051;-63
2023/11/17 09:27:48;;;;;;;0.70;0.70;;;;;;;13.55;54.57;96600.22;5062189;28;20556;-63
2023/11/17 09:30:15;;;;;;;0.60;0.60;;;;;;;12.88;56.82;96602.19;5046647;28;20053;-58
2023/11/17 09:32:43;;;;;;;0.60;0.60;;;;;;;12.17;59.13;96633.78;5064320;28;20412;-61
2023/11/17 09:35:15;;;;;;;0.52;0.52;;;;;;;12.27;59.56;96637.75;5061196;28;20045;-64
2023/11/17 09:37:51;;;;;;;0.50;0.50;;;;;;;12.78;59.38;96619.66;5065386;28;20049;-60
2023/11/17 09:40:22;;;;;;;0.50;0.50;;;;;;;13.34;57.69;96619.72;5064193;28;20111;-61
2023/11/17 09:42:57;;;;;;;0.50;0.50;;;;;;;13.34;57.01;96597.44;5034921;28;20052;-62
2023/11/17 09:45:25;;;;;;;0.60;0.60;;;;;;;13.44;56.58;96591.09;5055411;28;20045;-59
2023/11/17 09:47:55;;;;;;;0.60;0.60;;;;;;;13.72;56.25;96583.88;5063166;28;20071;-59
2023/11/17 09:50:27;;;;;;;0.60;0.60;;;;;;;13.53;56.06;96527.47;5052490;28;20080;-65
2023/11/17 09:52:55;;;;;;;0.60;0.60;;;;;;;14.13;55.07;96587.72;5063529;28;20052;-62
2023/11/17 09:55:27;;;;;;;0.63;0.63;;;;;;;14.17;54.92;96599.63;5063443;28;20048;-61
2023/11/17 09:57:57;;;;;;;0.60;0.60;;;;;;;14.07;54.95;96606.81;5063341;28;20048;-63
2023/11/17 10:00:27;;;;;;;0.60;0.60;;;;;;;13.16;55.24;96496.56;5064988;28;20457;-61
2023/11/17 10:03:03;;;;;;;0.60;0.60;;;;;;;13.32;55.98;96521.16;5063897;28;20161;-60
2023/11/17 10:05:34;;;;;;;0.60;0.60;;;;;;;13.45;56.11;96559.28;5039696;28;20066;-61
2023/11/17 10:08:11;;;;;;;0.60;0.60;;;;;;;13.24;57.25;96558.53;5061074;28;20044;-60
2023/11/17 10:10:41;;;;;;;0.50;0.50;;;;;;;12.30;58.60;96532.25;5047404;28;20053;-60
2023/11/17 10:13:11;;;;;;;0.50;0.50;;;;;;;11.14;60.97;96431.16;5064850;28;20075;-60
2023/11/17 10:15:39;;;;;;;0.50;0.50;;;;;;;12.68;60.47;96587.09;5065368;28;20084;-63
2023/11/17 10:18:07;;;;;;;0.52;0.52;;;;;;;13.05;58.85;96582.00;5063174;28;20123;-64
2023/11/17 10:20:38;;;;;;;0.60;0.60;;;;;;;13.22;58.68;96589.53;5064646;28;20048;-62
2023/11/17 10:23:05;;;;;;;0.60;0.60;;;;;;;13.45;57.88;96575.19;5064603;28;20049;-63
2023/11/17 10:25:33;;;;;;;0.60;0.60;;;;;;;13.64;56.83;96567.19;5046836;28;20161;-64
2023/11/17 10:28:02;;;;;;;0.60;0.60;;;;;;;13.18;58.34;96538.66;5046844;28;20052;-63
2023/11/17 10:30:34;;;;;;;0.60;0.60;;;;;;;13.63;57.20;96565.63;5052700;28;20110;-65
2023/11/17 10:33:13;;;;;;;0.60;0.60;;;;;;;13.28;57.41;96564.88;5045631;28;20053;-63
2023/11/17 10:35:43;;;;;;;0.50;0.50;;;;;;;12.79;58.67;96518.41;5046484;28;20056;-61
2023/11/17 10:38:15;;;;;;;0.60;0.60;;;;;;;13.35;57.69;96537.88;5063024;28;20083;-62
2023/11/17 10:40:42;;;;;;;0.60;0.60;;;;;;;13.29;57.57;96545.00;5042382;28;20049;-58
2023/11/17 10:43:11;;;;;;;0.55;0.55;;;;;;;13.03;57.30;96431.44;5058920;28;20495;-60
2023/11/17 10:45:50;;;;;;;0.50;0.50;;;;;;;13.04;57.51;96460.06;5050055;28;20044;-65
2023/11/17 10:48:18;;;;;;;0.50;0.50;;;;;;;12.82;58.25;96481.47;5060106;28;20054;-70
2023/11/17 10:50:45;;;;;;;0.50;0.50;;;;;;;11.46;59.58;96351.69;5063675;28;20067;-69
2023/11/17 10:53:24;;;;;;;0.50;0.50;;;;;;;12.93;59.05;96504.50;5025947;28;20131;-60
2023/11/17 10:55:56;;;;;;;0.50;0.50;;;;;;;12.67;59.35;96491.03;5050255;28;20292;-62
2023/11/17 10:58:24;;;;;;;0.60;0.60;;;;;;;13.18;58.32;96488.59;5033752;28;20056;-61
2023/11/17 11:00:51;;;;;;;0.60;0.60;;;;;;;13.45;57.83;96448.00;5060205;28;20604;-59
2023/11/17 11:03:18;;;;;;;0.50;0.50;;;;;;;13.98;55.78;96469.22;5047562;28;20060;-61
2023/11/17 11:05:47;;;;;;;0.60;0.60;;;;;;;14.34;55.40;96476.19;5057875;28;20053;-59
2023/11/17 11:08:18;;;;;;;0.60;0.60;;;;;;;14.01;55.08;96440.56;5060740;28;20048;-59
2023/11/17 11:11:04;;;;;;;0.60;0.60;;;;;;;13.67;55.22;96427.22;5062403;28;20044;-61
2023/11/17 11:13:30;;;;;;;0.60;0.60;;;;;;;13.65;54.57;96381.53;5040226;28;20057;-62
2023/11/17 11:16:07;;;;;;;0.60;0.60;;;;;;;14.49;54.45;96449.81;5057592;28;20143;-63
2023/11/17 11:18:46;;;;;;;0.60;0.60;;;;;;;14.55;54.76;96459.31;5059968;28;20098;-63
2023/11/17 11:21:18;;;;;;;0.60;0.60;;;;;;;14.67;53.60;96467.19;5062019;28;20060;-63
2023/11/17 11:23:45;;;;;;;0.60;0.60;;;;;;;14.63;53.53;96470.00;5061497;28;20056;-63
2023/11/17 11:26:17;;;;;;;0.70;0.70;;;;;;;14.47;53.79;96438.28;5060374;28;20063;-60
2023/11/17 11:28:48;;;;;;;0.65;0.65;;;;;;;14.54;54.17;96463.31;5063393;28;20143;-60
2023/11/17 11:31:15;;;;;;;0.60;0.60;;;;;;;14.48;54.22;96453.81;5063602;28;20055;-61
2023/11/17 11:33:43;;;;;;;0.70;0.70;;;;;;;14.32;55.12;96451.53;5063286;28;20055;-63
2023/11/17 11:36:11;;;;;;;0.60;0.60;;;;;;;14.12;56.68;96458.00;5061515;28;20060;-63
2023/11/17 11:38:39;;;;;;;0.60;0.60;;;;;;;13.82;57.71;96449.41;5063025;28;20125;-63
2023/11/17 11:41:15;;;;;;;0.60;0.60;;;;;;;13.55;58.72;96454.72;5063951;28;20195;-60
2023/11/17 11:43:47;;;;;;;0.60;0.60;;;;;;;13.11;61.27;96393.28;5049424;28;20539;-60
2023/11/17 11:46:16;;;;;;;0.60;0.60;;;;;;;13.09;61.51;96402.03;5036856;28;20106;-63